sensor_id;sensor_type;location;lat;lon;timestamp;temperature;humidity
77582;DHT22;66726;52.388;9.986;2023-05-14T00:01:27;13.60;93.70
77582;DHT22;66726;52.388;9.986;2023-05-14T00:03:58;13.60;94.00
77582;DHT22;66726;52.388;9.986;2023-05-14T00:06:32;13.60;93.70
77582;DHT22;66726;52.388;9.986;2023-05-14T00:09:04;13.50;94.10
77582;DHT22;66726;52.388;9.986;2023-05-14T00:11:36;13.50;94.70
77582;DHT22;66726;52.388;9.986;2023-05-14T00:14:13;13.50;94.40
77582;DHT22;66726;52.388;9.986;2023-05-14T00:16:45;13.50;94.30
77582;DHT22;66726;52.388;9.986;2023-05-14T00:19:17;13.50;94.30
77582;DHT22;66726;52.388;9.986;2023-05-14T00:21:50;13.50;94.50
77582;DHT22;66726;52.388;9.986;2023-05-14T00:24:22;13.30;94.50
77582;DHT22;66726;52.388;9.986;2023-05-14T00:26:54;13.40;94.50
77582;DHT22;66726;52.388;9.986;2023-05-14T00:29:26;13.30;94.90
77582;DHT22;66726;52.388;9.986;2023-05-14T00:31:59;13.30;95.10
77582;DHT22;66726;52.388;9.986;2023-05-14T00:34:31;13.30;94.80
77582;DHT22;66726;52.388;9.986;2023-05-14T00:37:05;13.10;95.30
77582;DHT22;66726;52.388;9.986;2023-05-14T00:39:37;13.10;95.40
77582;DHT22;66726;52.388;9.986;2023-05-14T00:42:09;13.10;95.40
77582;DHT22;66726;52.388;9.986;2023-05-14T00:44:41;13.00;95.60
77582;DHT22;66726;52.388;9.986;2023-05-14T00:47:13;13.00;95.90
77582;DHT22;66726;52.388;9.986;2023-05-14T00:49:46;13.10;95.60
77582;DHT22;66726;52.388;9.986;2023-05-14T00:52:19;13.10;95.50
77582;DHT22;66726;52.388;9.986;2023-05-14T00:54:52;13.00;95.80
77582;DHT22;66726;52.388;9.986;2023-05-14T00:57:25;13.00;96.10
77582;DHT22;66726;52.388;9.986;2023-05-14T00:59:57;12.90;96.10
77582;DHT22;66726;52.388;9.986;2023-05-14T01:02:30;12.90;96.40
77582;DHT22;66726;52.388;9.986;2023-05-14T01:05:02;12.90;96.50
77582;DHT22;66726;52.388;9.986;2023-05-14T01:07:42;12.80;96.50
77582;DHT22;66726;52.388;9.986;2023-05-14T01:10:23;12.80;96.80
77582;DHT22;66726;52.388;9.986;2023-05-14T01:13:06;12.70;97.00
77582;DHT22;66726;52.388;9.986;2023-05-14T01:15:43;12.70;96.80
77582;DHT22;66726;52.388;9.986;2023-05-14T01:18:18;12.70;96.80
77582;DHT22;66726;52.388;9.986;2023-05-14T01:20:52;12.70;97.00
77582;DHT22;66726;52.388;9.986;2023-05-14T01:23:26;12.70;97.00
77582;DHT22;66726;52.388;9.986;2023-05-14T01:25:58;12.60;97.10
77582;DHT22;66726;52.388;9.986;2023-05-14T01:28:33;12.60;97.10
77582;DHT22;66726;52.388;9.986;2023-05-14T01:31:11;12.60;97.00
77582;DHT22;66726;52.388;9.986;2023-05-14T01:33:49;12.50;97.10
77582;DHT22;66726;52.388;9.986;2023-05-14T01:36:23;12.50;97.40
77582;DHT22;66726;52.388;9.986;2023-05-14T01:38:57;12.40;97.70
77582;DHT22;66726;52.388;9.986;2023-05-14T01:41:32;12.40;97.70
77582;DHT22;66726;52.388;9.986;2023-05-14T01:44:04;12.40;97.60
77582;DHT22;66726;52.388;9.986;2023-05-14T01:46:36;12.30;97.90
77582;DHT22;66726;52.388;9.986;2023-05-14T01:49:08;12.30;98.10
77582;DHT22;66726;52.388;9.986;2023-05-14T01:51:40;12.20;98.20
77582;DHT22;66726;52.388;9.986;2023-05-14T01:54:13;12.20;98.30
77582;DHT22;66726;52.388;9.986;2023-05-14T01:56:45;12.10;98.40
77582;DHT22;66726;52.388;9.986;2023-05-14T01:59:16;12.10;98.30
77582;DHT22;66726;52.388;9.986;2023-05-14T02:01:48;12.10;98.70
77582;DHT22;66726;52.388;9.986;2023-05-14T02:04:20;12.20;98.20
77582;DHT22;66726;52.388;9.986;2023-05-14T02:06:52;12.10;98.70
77582;DHT22;66726;52.388;9.986;2023-05-14T02:09:25;12.00;99.00
77582;DHT22;66726;52.388;9.986;2023-05-14T02:11:58;12.00;98.90
77582;DHT22;66726;52.388;9.986;2023-05-14T02:14:30;11.90;98.90
77582;DHT22;66726;52.388;9.986;2023-05-14T02:17:02;12.00;99.00
77582;DHT22;66726;52.388;9.986;2023-05-14T02:19:34;11.90;99.10
77582;DHT22;66726;52.388;9.986;2023-05-14T02:22:06;11.90;98.90
77582;DHT22;66726;52.388;9.986;2023-05-14T02:24:39;11.90;99.20
77582;DHT22;66726;52.388;9.986;2023-05-14T02:27:11;12.10;98.60
77582;DHT22;66726;52.388;9.986;2023-05-14T02:29:43;12.00;98.00
77582;DHT22;66726;52.388;9.986;2023-05-14T02:32:15;11.90;98.50
77582;DHT22;66726;52.388;9.986;2023-05-14T02:34:47;11.90;98.30
77582;DHT22;66726;52.388;9.986;2023-05-14T02:37:19;11.80;98.70
77582;DHT22;66726;52.388;9.986;2023-05-14T02:39:52;11.90;98.60
77582;DHT22;66726;52.388;9.986;2023-05-14T02:42:24;11.70;98.60
77582;DHT22;66726;52.388;9.986;2023-05-14T02:44:56;11.60;98.80
77582;DHT22;66726;52.388;9.986;2023-05-14T02:47:27;11.50;99.10
77582;DHT22;66726;52.388;9.986;2023-05-14T02:50:00;11.50;99.30
77582;DHT22;66726;52.388;9.986;2023-05-14T02:52:33;11.50;99.40
77582;DHT22;66726;52.388;9.986;2023-05-14T02:55:08;11.40;99.40
77582;DHT22;66726;52.388;9.986;2023-05-14T02:57:40;11.50;99.50
77582;DHT22;66726;52.388;9.986;2023-05-14T03:00:13;11.40;99.20
77582;DHT22;66726;52.388;9.986;2023-05-14T03:02:45;11.30;99.40
77582;DHT22;66726;52.388;9.986;2023-05-14T03:05:18;11.40;99.20
77582;DHT22;66726;52.388;9.986;2023-05-14T03:07:49;11.30;99.30
77582;DHT22;66726;52.388;9.986;2023-05-14T03:10:23;11.40;99.20
77582;DHT22;66726;52.388;9.986;2023-05-14T03:12:55;11.30;99.10
77582;DHT22;66726;52.388;9.986;2023-05-14T03:15:27;11.30;99.30
77582;DHT22;66726;52.388;9.986;2023-05-14T03:17:59;11.30;99.00
77582;DHT22;66726;52.388;9.986;2023-05-14T03:20:30;11.40;99.10
77582;DHT22;66726;52.388;9.986;2023-05-14T03:23:02;11.30;99.00
77582;DHT22;66726;52.388;9.986;2023-05-14T03:25:35;11.30;99.50
77582;DHT22;66726;52.388;9.986;2023-05-14T03:28:07;11.20;99.10
77582;DHT22;66726;52.388;9.986;2023-05-14T03:30:39;11.20;99.10
77582;DHT22;66726;52.388;9.986;2023-05-14T03:33:11;11.20;99.40
77582;DHT22;66726;52.388;9.986;2023-05-14T03:35:43;11.10;99.40
77582;DHT22;66726;52.388;9.986;2023-05-14T03:38:15;11.10;99.40
77582;DHT22;66726;52.388;9.986;2023-05-14T03:40:48;11.10;99.60
77582;DHT22;66726;52.388;9.986;2023-05-14T03:43:20;11.00;99.70
77582;DHT22;66726;52.388;9.986;2023-05-14T03:45:51;11.00;99.80
77582;DHT22;66726;52.388;9.986;2023-05-14T03:48:23;11.00;99.70
77582;DHT22;66726;52.388;9.986;2023-05-14T03:50:55;11.00;99.90
77582;DHT22;66726;52.388;9.986;2023-05-14T03:53:27;11.00;99.90
77582;DHT22;66726;52.388;9.986;2023-05-14T03:56:00;11.00;99.90
77582;DHT22;66726;52.388;9.986;2023-05-14T03:58:32;10.90;99.90
77582;DHT22;66726;52.388;9.986;2023-05-14T04:01:04;11.00;99.90
77582;DHT22;66726;52.388;9.986;2023-05-14T04:03:35;11.10;99.90
77582;DHT22;66726;52.388;9.986;2023-05-14T04:06:07;11.20;99.80
77582;DHT22;66726;52.388;9.986;2023-05-14T04:08:39;11.30;99.50
77582;DHT22;66726;52.388;9.986;2023-05-14T04:11:13;11.30;99.60
77582;DHT22;66726;52.388;9.986;2023-05-14T04:13:44;11.10;99.90
77582;DHT22;66726;52.388;9.986;2023-05-14T04:16:16;11.30;99.70
77582;DHT22;66726;52.388;9.986;2023-05-14T04:18:48;11.20;99.80
77582;DHT22;66726;52.388;9.986;2023-05-14T04:21:20;11.10;99.90
77582;DHT22;66726;52.388;9.986;2023-05-14T04:23:52;11.30;99.90
77582;DHT22;66726;52.388;9.986;2023-05-14T04:26:25;11.30;99.90
77582;DHT22;66726;52.388;9.986;2023-05-14T04:28:57;11.20;99.90
77582;DHT22;66726;52.388;9.986;2023-05-14T04:31:31;11.10;99.90
77582;DHT22;66726;52.388;9.986;2023-05-14T04:34:02;11.10;99.90
77582;DHT22;66726;52.388;9.986;2023-05-14T04:36:34;11.20;99.90
77582;DHT22;66726;52.388;9.986;2023-05-14T04:39:07;11.30;99.90
77582;DHT22;66726;52.388;9.986;2023-05-14T04:41:41;11.20;99.90
77582;DHT22;66726;52.388;9.986;2023-05-14T04:44:13;11.10;99.90
77582;DHT22;66726;52.388;9.986;2023-05-14T04:46:45;11.10;99.90
77582;DHT22;66726;52.388;9.986;2023-05-14T04:49:19;11.20;99.90
77582;DHT22;66726;52.388;9.986;2023-05-14T04:51:50;11.20;99.90
77582;DHT22;66726;52.388;9.986;2023-05-14T04:54:23;11.20;99.90
77582;DHT22;66726;52.388;9.986;2023-05-14T04:56:57;11.30;99.90
77582;DHT22;66726;52.388;9.986;2023-05-14T04:59:31;11.30;99.90
77582;DHT22;66726;52.388;9.986;2023-05-14T05:02:02;11.30;99.90
77582;DHT22;66726;52.388;9.986;2023-05-14T05:04:34;11.30;99.90
77582;DHT22;66726;52.388;9.986;2023-05-14T05:07:06;11.40;99.90
77582;DHT22;66726;52.388;9.986;2023-05-14T05:09:38;11.40;99.90
77582;DHT22;66726;52.388;9.986;2023-05-14T05:12:12;11.40;99.90
77582;DHT22;66726;52.388;9.986;2023-05-14T05:14:44;11.40;99.90
77582;DHT22;66726;52.388;9.986;2023-05-14T05:17:16;11.40;99.90
77582;DHT22;66726;52.388;9.986;2023-05-14T05:19:48;11.50;99.90
77582;DHT22;66726;52.388;9.986;2023-05-14T05:22:20;11.60;99.90
77582;DHT22;66726;52.388;9.986;2023-05-14T05:24:52;11.60;99.90
77582;DHT22;66726;52.388;9.986;2023-05-14T05:27:25;11.60;99.90
77582;DHT22;66726;52.388;9.986;2023-05-14T05:29:57;11.70;99.90
77582;DHT22;66726;52.388;9.986;2023-05-14T05:32:29;11.70;99.90
77582;DHT22;66726;52.388;9.986;2023-05-14T05:35:01;11.70;99.90
77582;DHT22;66726;52.388;9.986;2023-05-14T05:37:34;11.80;99.90
77582;DHT22;66726;52.388;9.986;2023-05-14T05:40:07;11.80;99.90
77582;DHT22;66726;52.388;9.986;2023-05-14T05:42:43;11.90;99.90
77582;DHT22;66726;52.388;9.986;2023-05-14T05:45:15;11.90;99.90
77582;DHT22;66726;52.388;9.986;2023-05-14T05:47:47;11.90;99.90
77582;DHT22;66726;52.388;9.986;2023-05-14T05:50:19;12.00;99.90
77582;DHT22;66726;52.388;9.986;2023-05-14T05:52:51;12.10;99.90
77582;DHT22;66726;52.388;9.986;2023-05-14T05:55:22;12.10;99.90
77582;DHT22;66726;52.388;9.986;2023-05-14T05:57:56;12.20;99.90
77582;DHT22;66726;52.388;9.986;2023-05-14T06:00:27;12.20;99.90
77582;DHT22;66726;52.388;9.986;2023-05-14T06:02:59;12.30;99.90
77582;DHT22;66726;52.388;9.986;2023-05-14T06:05:31;12.40;99.90
77582;DHT22;66726;52.388;9.986;2023-05-14T06:08:03;12.50;99.90
77582;DHT22;66726;52.388;9.986;2023-05-14T06:10:35;12.50;99.90
77582;DHT22;66726;52.388;9.986;2023-05-14T06:13:08;12.60;99.90
77582;DHT22;66726;52.388;9.986;2023-05-14T06:15:40;12.70;99.90
77582;DHT22;66726;52.388;9.986;2023-05-14T06:18:12;12.70;99.80
77582;DHT22;66726;52.388;9.986;2023-05-14T06:20:44;12.80;99.60
77582;DHT22;66726;52.388;9.986;2023-05-14T06:23:16;12.90;99.30
77582;DHT22;66726;52.388;9.986;2023-05-14T06:25:48;12.90;99.30
77582;DHT22;66726;52.388;9.986;2023-05-14T06:28:21;13.00;99.80
77582;DHT22;66726;52.388;9.986;2023-05-14T06:30:52;13.10;99.80
77582;DHT22;66726;52.388;9.986;2023-05-14T06:33:24;13.10;99.50
77582;DHT22;66726;52.388;9.986;2023-05-14T06:36:02;13.20;99.90
77582;DHT22;66726;52.388;9.986;2023-05-14T06:38:35;13.30;99.70
77582;DHT22;66726;52.388;9.986;2023-05-14T06:41:09;13.30;99.20
77582;DHT22;66726;52.388;9.986;2023-05-14T06:43:42;13.40;99.00
77582;DHT22;66726;52.388;9.986;2023-05-14T06:46:14;13.50;98.90
77582;DHT22;66726;52.388;9.986;2023-05-14T06:48:46;13.60;98.60
77582;DHT22;66726;52.388;9.986;2023-05-14T06:51:18;13.70;98.60
77582;DHT22;66726;52.388;9.986;2023-05-14T06:53:50;13.70;98.10
77582;DHT22;66726;52.388;9.986;2023-05-14T06:56:21;13.80;98.30
77582;DHT22;66726;52.388;9.986;2023-05-14T06:58:55;13.90;98.50
77582;DHT22;66726;52.388;9.986;2023-05-14T07:01:27;14.00;97.90
77582;DHT22;66726;52.388;9.986;2023-05-14T07:03:59;14.00;98.10
77582;DHT22;66726;52.388;9.986;2023-05-14T07:06:31;14.10;97.70
77582;DHT22;66726;52.388;9.986;2023-05-14T07:09:03;14.10;98.80
77582;DHT22;66726;52.388;9.986;2023-05-14T07:11:35;14.20;98.70
77582;DHT22;66726;52.388;9.986;2023-05-14T07:14:08;14.20;97.90
77582;DHT22;66726;52.388;9.986;2023-05-14T07:16:40;14.30;97.40
77582;DHT22;66726;52.388;9.986;2023-05-14T07:19:14;14.40;97.60
77582;DHT22;66726;52.388;9.986;2023-05-14T07:21:46;14.50;97.90
77582;DHT22;66726;52.388;9.986;2023-05-14T07:24:18;14.70;97.20
77582;DHT22;66726;52.388;9.986;2023-05-14T07:26:50;14.80;96.40
77582;DHT22;66726;52.388;9.986;2023-05-14T07:29:26;15.00;96.00
77582;DHT22;66726;52.388;9.986;2023-05-14T07:32:00;15.00;95.80
77582;DHT22;66726;52.388;9.986;2023-05-14T07:34:32;15.10;95.50
77582;DHT22;66726;52.388;9.986;2023-05-14T07:37:04;15.10;95.70
77582;DHT22;66726;52.388;9.986;2023-05-14T07:39:35;15.20;96.40
77582;DHT22;66726;52.388;9.986;2023-05-14T07:42:09;15.30;95.70
77582;DHT22;66726;52.388;9.986;2023-05-14T07:44:53;15.30;95.30
77582;DHT22;66726;52.388;9.986;2023-05-14T07:47:25;15.30;95.30
77582;DHT22;66726;52.388;9.986;2023-05-14T07:49:58;15.40;95.80
77582;DHT22;66726;52.388;9.986;2023-05-14T07:52:30;15.60;94.90
77582;DHT22;66726;52.388;9.986;2023-05-14T07:55:02;15.80;94.20
77582;DHT22;66726;52.388;9.986;2023-05-14T07:57:34;15.70;95.70
77582;DHT22;66726;52.388;9.986;2023-05-14T08:00:09;15.80;96.00
77582;DHT22;66726;52.388;9.986;2023-05-14T08:02:43;16.00;94.20
77582;DHT22;66726;52.388;9.986;2023-05-14T08:05:16;16.00;95.20
77582;DHT22;66726;52.388;9.986;2023-05-14T08:07:48;16.00;95.40
77582;DHT22;66726;52.388;9.986;2023-05-14T08:10:20;16.20;94.00
77582;DHT22;66726;52.388;9.986;2023-05-14T08:12:52;16.30;93.00
77582;DHT22;66726;52.388;9.986;2023-05-14T08:15:25;16.40;93.50
77582;DHT22;66726;52.388;9.986;2023-05-14T08:17:57;16.40;93.70
77582;DHT22;66726;52.388;9.986;2023-05-14T08:20:31;16.50;93.80
77582;DHT22;66726;52.388;9.986;2023-05-14T08:23:04;16.70;92.10
77582;DHT22;66726;52.388;9.986;2023-05-14T08:25:36;16.60;93.00
77582;DHT22;66726;52.388;9.986;2023-05-14T08:28:08;16.70;93.10
77582;DHT22;66726;52.388;9.986;2023-05-14T08:30:41;16.80;93.00
77582;DHT22;66726;52.388;9.986;2023-05-14T08:33:13;16.90;92.50
77582;DHT22;66726;52.388;9.986;2023-05-14T08:35:45;17.00;93.30
77582;DHT22;66726;52.388;9.986;2023-05-14T08:38:20;17.10;90.70
77582;DHT22;66726;52.388;9.986;2023-05-14T08:40:57;17.20;91.80
77582;DHT22;66726;52.388;9.986;2023-05-14T08:43:36;17.30;90.50
77582;DHT22;66726;52.388;9.986;2023-05-14T08:46:25;17.30;92.00
77582;DHT22;66726;52.388;9.986;2023-05-14T08:49:07;17.50;90.90
77582;DHT22;66726;52.388;9.986;2023-05-14T08:51:46;17.50;91.60
77582;DHT22;66726;52.388;9.986;2023-05-14T08:54:19;17.60;88.80
77582;DHT22;66726;52.388;9.986;2023-05-14T08:56:53;17.70;88.70
77582;DHT22;66726;52.388;9.986;2023-05-14T08:59:29;17.90;89.00
77582;DHT22;66726;52.388;9.986;2023-05-14T09:02:04;17.90;88.30
77582;DHT22;66726;52.388;9.986;2023-05-14T09:04:38;18.10;89.70
77582;DHT22;66726;52.388;9.986;2023-05-14T09:07:11;18.10;90.50
77582;DHT22;66726;52.388;9.986;2023-05-14T09:09:43;18.20;90.50
77582;DHT22;66726;52.388;9.986;2023-05-14T09:12:15;18.20;86.10
77582;DHT22;66726;52.388;9.986;2023-05-14T09:14:48;18.30;82.60
77582;DHT22;66726;52.388;9.986;2023-05-14T09:17:23;18.40;85.60
77582;DHT22;66726;52.388;9.986;2023-05-14T09:19:56;18.50;81.70
77582;DHT22;66726;52.388;9.986;2023-05-14T09:22:30;18.60;84.30
77582;DHT22;66726;52.388;9.986;2023-05-14T09:25:05;18.70;81.20
77582;DHT22;66726;52.388;9.986;2023-05-14T09:27:39;18.80;79.00
77582;DHT22;66726;52.388;9.986;2023-05-14T09:30:17;18.90;83.20
77582;DHT22;66726;52.388;9.986;2023-05-14T09:32:51;19.00;81.50
77582;DHT22;66726;52.388;9.986;2023-05-14T09:35:25;19.10;78.60
77582;DHT22;66726;52.388;9.986;2023-05-14T09:37:57;19.10;80.00
77582;DHT22;66726;52.388;9.986;2023-05-14T09:40:29;19.20;80.10
77582;DHT22;66726;52.388;9.986;2023-05-14T09:43:01;19.30;78.80
77582;DHT22;66726;52.388;9.986;2023-05-14T09:45:33;19.40;81.30
77582;DHT22;66726;52.388;9.986;2023-05-14T09:48:06;19.50;73.90
77582;DHT22;66726;52.388;9.986;2023-05-14T09:50:42;19.60;78.40
77582;DHT22;66726;52.388;9.986;2023-05-14T09:53:16;19.60;75.00
77582;DHT22;66726;52.388;9.986;2023-05-14T09:55:49;19.70;72.10
77582;DHT22;66726;52.388;9.986;2023-05-14T09:58:22;19.80;70.90
77582;DHT22;66726;52.388;9.986;2023-05-14T10:00:56;19.90;74.60
77582;DHT22;66726;52.388;9.986;2023-05-14T10:03:31;20.00;74.10
77582;DHT22;66726;52.388;9.986;2023-05-14T10:06:06;20.10;70.20
77582;DHT22;66726;52.388;9.986;2023-05-14T10:08:42;20.00;72.30
77582;DHT22;66726;52.388;9.986;2023-05-14T10:11:21;20.10;74.20
77582;DHT22;66726;52.388;9.986;2023-05-14T10:14:04;20.20;73.40
77582;DHT22;66726;52.388;9.986;2023-05-14T10:16:48;20.40;76.80
77582;DHT22;66726;52.388;9.986;2023-05-14T10:19:25;20.50;70.60
77582;DHT22;66726;52.388;9.986;2023-05-14T10:22:05;20.60;70.70
77582;DHT22;66726;52.388;9.986;2023-05-14T10:24:40;20.50;63.20
77582;DHT22;66726;52.388;9.986;2023-05-14T10:27:15;20.60;64.60
77582;DHT22;66726;52.388;9.986;2023-05-14T10:29:52;20.70;67.90
77582;DHT22;66726;52.388;9.986;2023-05-14T10:32:25;20.80;68.00
77582;DHT22;66726;52.388;9.986;2023-05-14T10:35:06;20.80;62.30
77582;DHT22;66726;52.388;9.986;2023-05-14T10:37:45;20.90;62.60
77582;DHT22;66726;52.388;9.986;2023-05-14T10:40:19;21.10;60.30
77582;DHT22;66726;52.388;9.986;2023-05-14T10:42:54;21.20;59.90
77582;DHT22;66726;52.388;9.986;2023-05-14T10:45:31;21.30;59.70
77582;DHT22;66726;52.388;9.986;2023-05-14T10:48:03;21.30;56.40
77582;DHT22;66726;52.388;9.986;2023-05-14T10:50:36;21.40;58.30
77582;DHT22;66726;52.388;9.986;2023-05-14T10:53:14;21.60;61.30
77582;DHT22;66726;52.388;9.986;2023-05-14T10:55:47;21.70;59.00
77582;DHT22;66726;52.388;9.986;2023-05-14T10:58:23;21.80;59.00
77582;DHT22;66726;52.388;9.986;2023-05-14T11:00:56;21.80;56.60
77582;DHT22;66726;52.388;9.986;2023-05-14T11:03:31;21.80;58.50
77582;DHT22;66726;52.388;9.986;2023-05-14T11:06:09;21.90;59.90
77582;DHT22;66726;52.388;9.986;2023-05-14T11:08:43;21.80;57.90
77582;DHT22;66726;52.388;9.986;2023-05-14T11:11:15;21.90;58.80
77582;DHT22;66726;52.388;9.986;2023-05-14T11:13:49;22.00;54.70
77582;DHT22;66726;52.388;9.986;2023-05-14T11:16:22;22.20;54.50
77582;DHT22;66726;52.388;9.986;2023-05-14T11:19:03;22.40;56.10
77582;DHT22;66726;52.388;9.986;2023-05-14T11:21:37;22.50;54.60
77582;DHT22;66726;52.388;9.986;2023-05-14T11:24:09;22.50;55.00
77582;DHT22;66726;52.388;9.986;2023-05-14T11:26:41;22.50;56.80
77582;DHT22;66726;52.388;9.986;2023-05-14T11:29:16;22.40;54.50
77582;DHT22;66726;52.388;9.986;2023-05-14T11:31:48;22.50;53.70
77582;DHT22;66726;52.388;9.986;2023-05-14T11:34:21;22.70;55.00
77582;DHT22;66726;52.388;9.986;2023-05-14T11:36:54;22.20;51.10
77582;DHT22;66726;52.388;9.986;2023-05-14T11:39:26;22.40;51.80
77582;DHT22;66726;52.388;9.986;2023-05-14T11:41:59;22.50;55.40
77582;DHT22;66726;52.388;9.986;2023-05-14T11:44:35;22.70;53.60
77582;DHT22;66726;52.388;9.986;2023-05-14T11:47:07;22.80;53.80
77582;DHT22;66726;52.388;9.986;2023-05-14T11:49:39;23.00;53.10
77582;DHT22;66726;52.388;9.986;2023-05-14T11:52:14;23.10;52.20
77582;DHT22;66726;52.388;9.986;2023-05-14T11:54:49;23.10;49.10
77582;DHT22;66726;52.388;9.986;2023-05-14T11:57:22;23.20;49.70
77582;DHT22;66726;52.388;9.986;2023-05-14T11:59:56;23.30;50.90
77582;DHT22;66726;52.388;9.986;2023-05-14T12:02:28;23.40;50.90
77582;DHT22;66726;52.388;9.986;2023-05-14T12:05:00;23.50;50.40
77582;DHT22;66726;52.388;9.986;2023-05-14T12:07:35;23.60;51.60
77582;DHT22;66726;52.388;9.986;2023-05-14T12:10:13;23.70;52.00
77582;DHT22;66726;52.388;9.986;2023-05-14T12:12:48;23.70;55.00
77582;DHT22;66726;52.388;9.986;2023-05-14T12:15:21;23.70;49.30
77582;DHT22;66726;52.388;9.986;2023-05-14T12:17:54;23.80;47.90
77582;DHT22;66726;52.388;9.986;2023-05-14T12:20:26;23.70;49.50
77582;DHT22;66726;52.388;9.986;2023-05-14T12:23:01;24.00;50.70
77582;DHT22;66726;52.388;9.986;2023-05-14T12:25:33;24.00;47.90
77582;DHT22;66726;52.388;9.986;2023-05-14T12:28:14;24.10;48.00
77582;DHT22;66726;52.388;9.986;2023-05-14T12:30:54;24.10;48.80
77582;DHT22;66726;52.388;9.986;2023-05-14T12:33:27;24.10;48.90
77582;DHT22;66726;52.388;9.986;2023-05-14T12:35:59;24.10;47.80
77582;DHT22;66726;52.388;9.986;2023-05-14T12:38:36;24.30;49.40
77582;DHT22;66726;52.388;9.986;2023-05-14T12:41:08;24.30;48.80
77582;DHT22;66726;52.388;9.986;2023-05-14T12:43:42;24.30;45.60
77582;DHT22;66726;52.388;9.986;2023-05-14T12:46:16;24.40;47.90
77582;DHT22;66726;52.388;9.986;2023-05-14T12:48:48;24.40;46.70
77582;DHT22;66726;52.388;9.986;2023-05-14T12:51:21;24.60;49.70
77582;DHT22;66726;52.388;9.986;2023-05-14T12:53:53;24.70;48.60
77582;DHT22;66726;52.388;9.986;2023-05-14T12:56:26;24.80;45.20
77582;DHT22;66726;52.388;9.986;2023-05-14T12:58:59;24.90;43.40
77582;DHT22;66726;52.388;9.986;2023-05-14T13:01:31;24.50;44.00
77582;DHT22;66726;52.388;9.986;2023-05-14T13:04:03;24.70;46.70
77582;DHT22;66726;52.388;9.986;2023-05-14T13:06:35;24.80;44.10
77582;DHT22;66726;52.388;9.986;2023-05-14T13:09:08;25.10;45.10
77582;DHT22;66726;52.388;9.986;2023-05-14T13:11:40;25.10;45.10
77582;DHT22;66726;52.388;9.986;2023-05-14T13:14:12;25.10;43.70
77582;DHT22;66726;52.388;9.986;2023-05-14T13:16:48;24.90;41.60
77582;DHT22;66726;52.388;9.986;2023-05-14T13:19:21;25.00;40.50
77582;DHT22;66726;52.388;9.986;2023-05-14T13:21:55;25.00;42.50
77582;DHT22;66726;52.388;9.986;2023-05-14T13:24:28;25.00;42.40
77582;DHT22;66726;52.388;9.986;2023-05-14T13:27:00;24.90;43.60
77582;DHT22;66726;52.388;9.986;2023-05-14T13:29:32;25.30;47.00
77582;DHT22;66726;52.388;9.986;2023-05-14T13:32:08;25.00;42.80
77582;DHT22;66726;52.388;9.986;2023-05-14T13:34:40;24.70;44.90
77582;DHT22;66726;52.388;9.986;2023-05-14T13:37:12;24.50;46.30
77582;DHT22;66726;52.388;9.986;2023-05-14T13:39:45;24.40;45.00
77582;DHT22;66726;52.388;9.986;2023-05-14T13:42:19;24.10;47.00
77582;DHT22;66726;52.388;9.986;2023-05-14T13:44:51;24.00;46.50
77582;DHT22;66726;52.388;9.986;2023-05-14T13:47:24;23.90;47.50
77582;DHT22;66726;52.388;9.986;2023-05-14T13:49:57;23.50;48.80
77582;DHT22;66726;52.388;9.986;2023-05-14T13:52:30;23.60;49.40
77582;DHT22;66726;52.388;9.986;2023-05-14T13:55:04;23.60;52.20
77582;DHT22;66726;52.388;9.986;2023-05-14T13:57:38;23.30;53.40
77582;DHT22;66726;52.388;9.986;2023-05-14T14:00:11;23.20;54.90
77582;DHT22;66726;52.388;9.986;2023-05-14T14:02:46;23.10;57.00
77582;DHT22;66726;52.388;9.986;2023-05-14T14:05:18;23.00;56.30
77582;DHT22;66726;52.388;9.986;2023-05-14T14:07:51;22.70;55.50
77582;DHT22;66726;52.388;9.986;2023-05-14T14:10:36;22.70;57.60
77582;DHT22;66726;52.388;9.986;2023-05-14T14:13:10;22.70;57.50
77582;DHT22;66726;52.388;9.986;2023-05-14T14:15:42;22.70;56.90
77582;DHT22;66726;52.388;9.986;2023-05-14T14:18:15;22.60;56.00
77582;DHT22;66726;52.388;9.986;2023-05-14T14:20:48;22.50;52.90
77582;DHT22;66726;52.388;9.986;2023-05-14T14:23:21;22.70;56.70
77582;DHT22;66726;52.388;9.986;2023-05-14T14:25:55;22.30;55.20
77582;DHT22;66726;52.388;9.986;2023-05-14T14:28:27;22.00;56.70
77582;DHT22;66726;52.388;9.986;2023-05-14T14:30:58;22.10;58.80
77582;DHT22;66726;52.388;9.986;2023-05-14T14:33:30;22.20;58.90
77582;DHT22;66726;52.388;9.986;2023-05-14T14:36:02;22.20;59.30
77582;DHT22;66726;52.388;9.986;2023-05-14T14:38:35;22.30;59.10
77582;DHT22;66726;52.388;9.986;2023-05-14T14:41:08;22.20;58.30
77582;DHT22;66726;52.388;9.986;2023-05-14T14:43:41;22.20;59.90
77582;DHT22;66726;52.388;9.986;2023-05-14T14:46:12;22.20;57.90
77582;DHT22;66726;52.388;9.986;2023-05-14T14:48:44;22.30;58.80
77582;DHT22;66726;52.388;9.986;2023-05-14T14:51:16;22.10;57.50
77582;DHT22;66726;52.388;9.986;2023-05-14T14:53:50;22.00;57.10
77582;DHT22;66726;52.388;9.986;2023-05-14T14:56:23;22.00;58.60
77582;DHT22;66726;52.388;9.986;2023-05-14T14:58:55;22.00;60.40
77582;DHT22;66726;52.388;9.986;2023-05-14T15:01:27;22.00;60.80
77582;DHT22;66726;52.388;9.986;2023-05-14T15:03:59;22.00;61.40
77582;DHT22;66726;52.388;9.986;2023-05-14T15:06:31;22.00;61.40
77582;DHT22;66726;52.388;9.986;2023-05-14T15:09:04;22.00;60.30
77582;DHT22;66726;52.388;9.986;2023-05-14T15:11:38;22.10;60.50
77582;DHT22;66726;52.388;9.986;2023-05-14T15:14:11;22.10;60.60
77582;DHT22;66726;52.388;9.986;2023-05-14T15:16:43;22.00;60.80
77582;DHT22;66726;52.388;9.986;2023-05-14T15:19:18;22.10;60.40
77582;DHT22;66726;52.388;9.986;2023-05-14T15:21:50;22.00;61.20
77582;DHT22;66726;52.388;9.986;2023-05-14T15:24:22;22.00;60.80
77582;DHT22;66726;52.388;9.986;2023-05-14T15:26:56;21.90;61.10
77582;DHT22;66726;52.388;9.986;2023-05-14T15:29:28;21.80;60.00
77582;DHT22;66726;52.388;9.986;2023-05-14T15:32:02;21.70;58.80
77582;DHT22;66726;52.388;9.986;2023-05-14T15:34:34;21.60;59.00
77582;DHT22;66726;52.388;9.986;2023-05-14T15:37:06;21.60;59.10
77582;DHT22;66726;52.388;9.986;2023-05-14T15:39:39;21.50;61.10
77582;DHT22;66726;52.388;9.986;2023-05-14T15:42:13;21.50;61.40
77582;DHT22;66726;52.388;9.986;2023-05-14T15:44:45;21.40;58.30
77582;DHT22;66726;52.388;9.986;2023-05-14T15:47:17;21.40;59.40
77582;DHT22;66726;52.388;9.986;2023-05-14T15:49:49;21.40;61.90
77582;DHT22;66726;52.388;9.986;2023-05-14T15:52:20;21.50;59.10
77582;DHT22;66726;52.388;9.986;2023-05-14T15:54:52;21.40;59.20
77582;DHT22;66726;52.388;9.986;2023-05-14T15:57:27;21.50;59.00
77582;DHT22;66726;52.388;9.986;2023-05-14T16:00:00;21.40;59.50
77582;DHT22;66726;52.388;9.986;2023-05-14T16:02:40;21.30;57.30
77582;DHT22;66726;52.388;9.986;2023-05-14T16:05:14;21.20;56.60
77582;DHT22;66726;52.388;9.986;2023-05-14T16:07:48;21.30;58.80